createdAt,value
2023-05-22T00:01:19.522Z,97068.50
2023-05-22T00:04:05.274Z,97073.44
2023-05-22T00:06:50.746Z,97071.19
2023-05-22T00:09:36.409Z,97070.56
2023-05-22T00:12:22.161Z,97074.28
2023-05-22T00:15:08.035Z,97066.31
2023-05-22T00:17:54.024Z,97070.81
2023-05-22T00:20:40.986Z,97062.84
2023-05-22T00:23:28.626Z,97075.75
2023-05-22T00:26:17.265Z,97064.56
2023-05-22T00:29:03.711Z,97061.91
2023-05-22T00:31:48.970Z,97060.47
2023-05-22T00:34:34.293Z,97053.25
2023-05-22T00:37:20.354Z,97056.38
2023-05-22T00:40:08.016Z,97065.97
2023-05-22T00:42:53.824Z,97064.09
2023-05-22T00:45:39.584Z,97063.56
2023-05-22T00:48:25.401Z,97067.25
2023-05-22T00:51:13.330Z,97060.59
2023-05-22T00:53:59.085Z,97060.59
2023-05-22T00:56:45.363Z,97057.38
2023-05-22T00:59:31.711Z,97053.09
2023-05-22T01:02:17.766Z,97054.97
2023-05-22T01:05:07.089Z,97054.63
2023-05-22T01:07:53.509Z,97063.66
2023-05-22T01:10:41.142Z,97053.50
2023-05-22T01:14:00.525Z,97057.72
2023-05-22T01:16:51.230Z,97066.19
2023-05-22T01:20:02.163Z,97068.25
2023-05-22T01:22:58.629Z,97068.84
2023-05-22T01:26:02.929Z,97069.88
2023-05-22T01:29:06.543Z,97062.13
2023-05-22T01:31:54.432Z,97054.66
2023-05-22T01:34:45.732Z,97054.91
2023-05-22T01:37:32.774Z,97067.13
2023-05-22T01:40:19.487Z,97065.03
2023-05-22T01:43:05.041Z,97057.88
2023-05-22T01:45:50.740Z,97065.03
2023-05-22T01:48:36.311Z,97059.72
2023-05-22T01:51:54.301Z,97066.00
2023-05-22T01:54:50.454Z,97062.47
2023-05-22T01:58:02.130Z,97062.16
2023-05-22T02:00:53.917Z,97068.19
2023-05-22T02:03:40.478Z,97060.94
2023-05-22T02:06:29.246Z,97060.94
2023-05-22T02:09:17.540Z,97064.19
2023-05-22T02:12:03.094Z,97067.63
2023-05-22T02:14:49.593Z,97059.91
2023-05-22T02:17:41.672Z,97063.03
2023-05-22T02:20:27.978Z,97057.91
2023-05-22T02:23:13.961Z,97051.22
2023-05-22T02:25:59.374Z,97047.53
2023-05-22T02:28:45.023Z,97047.28
2023-05-22T02:31:30.538Z,97049.13
2023-05-22T02:34:16.072Z,97045.66
2023-05-22T02:37:04.955Z,97044.88
2023-05-22T02:39:50.655Z,97046.97
2023-05-22T02:42:36.201Z,97033.38
2023-05-22T02:45:21.873Z,97041.31
2023-05-22T02:48:07.562Z,97035.19
2023-05-22T02:50:53.096Z,97038.09
2023-05-22T02:53:40.505Z,97042.03
2023-05-22T02:56:29.152Z,97038.41
2023-05-22T02:59:14.849Z,97039.13
2023-05-22T03:02:00.788Z,97036.97
2023-05-22T03:04:46.582Z,97033.75
2023-05-22T03:07:32.515Z,97026.81
2023-05-22T03:10:18.230Z,97029.47
2023-05-22T03:13:03.805Z,97037.44
2023-05-22T03:15:49.346Z,97032.13
2023-05-22T03:18:36.454Z,97034.00
2023-05-22T03:21:22.392Z,97035.84
2023-05-22T03:24:08.042Z,97039.28
2023-05-22T03:26:53.508Z,97043.56
2023-05-22T03:29:48.867Z,97041.16
2023-05-22T03:32:37.865Z,97042.19
2023-05-22T03:35:25.582Z,97040.59
2023-05-22T03:38:11.240Z,97038.72
2023-05-22T03:40:57.068Z,97043.22
2023-05-22T03:43:44.867Z,97040.59
2023-05-22T03:46:31.186Z,97037.94
2023-05-22T03:49:17.209Z,97036.88
2023-05-22T03:52:03.020Z,97041.94
2023-05-22T04:00:13.424Z,97036.97
2023-05-22T04:03:19.963Z,97040.19
2023-05-22T04:06:06.024Z,97042.09
2023-05-22T04:08:51.402Z,97044.03
2023-05-22T04:11:37.372Z,97042.28
2023-05-22T04:14:23.016Z,97041.31
2023-05-22T04:17:08.556Z,97044.06
2023-05-22T04:19:54.358Z,97046.78
2023-05-22T04:22:41.222Z,97057.25
2023-05-22T04:25:27.857Z,97050.16
2023-05-22T04:28:13.318Z,97051.63
2023-05-22T04:30:58.835Z,97058.94
2023-05-22T04:33:48.483Z,97056.97
2023-05-22T04:36:34.146Z,97048.09
2023-05-22T04:39:19.783Z,97048.00
2023-05-22T04:42:05.941Z,97048.44
2023-05-22T04:44:53.321Z,97056.59
2023-05-22T04:47:41.710Z,97055.44
2023-05-22T04:50:30.481Z,97054.00
2023-05-22T04:53:16.335Z,97056.59
2023-05-22T04:56:02.768Z,97057.53
2023-05-22T04:58:51.370Z,97059.28
2023-05-22T05:01:38.336Z,97060.22
2023-05-22T05:04:23.782Z,97058.22
2023-05-22T05:07:09.591Z,97058.31
2023-05-22T05:09:56.214Z,97048.31
2023-05-22T05:12:41.720Z,97051.63
2023-05-22T05:15:28.173Z,97056.22
2023-05-22T05:18:14.157Z,97061.13
2023-05-22T05:21:01.130Z,97058.81
2023-05-22T05:23:46.454Z,97059.13
2023-05-22T05:26:32.453Z,97057.31
2023-05-22T05:29:18.221Z,97062.69
2023-05-22T05:32:13.091Z,97053.69
2023-05-22T05:35:21.520Z,97061.44
2023-05-22T05:38:10.803Z,97057.69
2023-05-22T05:40:58.881Z,97057.66
2023-05-22T05:43:44.806Z,97058.16
2023-05-22T05:46:30.806Z,97058.66
2023-05-22T05:49:16.474Z,97054.34
2023-05-22T05:52:02.035Z,97052.75
2023-05-22T05:54:48.108Z,97058.03
2023-05-22T05:57:39.161Z,97055.28
2023-05-22T06:00:27.605Z,97060.84
2023-05-22T06:03:14.746Z,97056.19
2023-05-22T06:06:19.874Z,97051.81
2023-05-22T06:09:24.685Z,97050.69
2023-05-22T06:12:26.964Z,97049.22
2023-05-22T06:15:13.809Z,97048.38
2023-05-22T06:17:59.560Z,97056.84
2023-05-22T06:20:45.691Z,97046.53
2023-05-22T06:23:32.384Z,97048.06
2023-05-22T06:26:18.294Z,97042.59
2023-05-22T06:29:05.939Z,97047.06
2023-05-22T06:31:53.573Z,97042.09
2023-05-22T06:34:40.510Z,97044.16
2023-05-22T06:37:27.397Z,97042.16
2023-05-22T06:40:13.237Z,97035.63
2023-05-22T06:43:04.769Z,97040.91
2023-05-22T06:45:59.699Z,97039.25
2023-05-22T06:48:59.888Z,97038.31
2023-05-22T06:51:53.897Z,97040.88
2023-05-22T06:54:43.142Z,97032.97
2023-05-22T06:57:31.866Z,97038.47
2023-05-22T07:00:21.527Z,97032.44
2023-05-22T07:03:22.709Z,97032.38
2023-05-22T07:06:28.433Z,97043.56
2023-05-22T07:09:15.472Z,97040.28
2023-05-22T07:12:01.297Z,97035.63
2023-05-22T07:14:47.447Z,97039.25
2023-05-22T07:17:33.744Z,97038.06
2023-05-22T07:20:19.728Z,97038.44
2023-05-22T07:23:18.621Z,97034.47
2023-05-22T07:26:04.274Z,97032.72
2023-05-22T07:28:54.573Z,97037.22
2023-05-22T07:31:39.975Z,97037.13
2023-05-22T07:34:32.061Z,97035.63
2023-05-22T07:37:18.472Z,97034.94
2023-05-22T07:40:08.143Z,97033.47
2023-05-22T07:42:53.991Z,97023.09
2023-05-22T07:45:40.502Z,97028.88
2023-05-22T07:48:28.328Z,97028.47
2023-05-22T07:51:13.904Z,97023.00
2023-05-22T07:54:00.996Z,97022.94
2023-05-22T07:56:47.802Z,97024.94
2023-05-22T07:59:35.898Z,97022.13
2023-05-22T08:02:22.853Z,97020.09
2023-05-22T08:05:09.240Z,97012.72
2023-05-22T08:07:55.240Z,97022.28
2023-05-22T08:11:01.912Z,97014.91
2023-05-22T08:13:46.562Z,97022.56
2023-05-22T08:16:32.714Z,97020.88
2023-05-22T08:19:18.494Z,97016.97
2023-05-22T08:22:04.395Z,97011.94
2023-05-22T08:24:50.596Z,97011.19
2023-05-22T08:27:36.381Z,97005.41
2023-05-22T08:30:21.720Z,97013.03
2023-05-22T08:33:07.154Z,97009.16
2023-05-22T08:35:52.751Z,97004.13
2023-05-22T08:38:38.456Z,97013.69
2023-05-22T08:41:23.991Z,97011.84
2023-05-22T08:44:11.082Z,97003.63
2023-05-22T08:46:59.700Z,97005.41
2023-05-22T08:49:48.794Z,97000.66
2023-05-22T08:52:42.912Z,96998.78
2023-05-22T08:55:28.895Z,96997.03
2023-05-22T08:58:16.204Z,96992.31
2023-05-22T09:01:02.736Z,96990.56
2023-05-22T09:03:51.431Z,96989.84
2023-05-22T09:06:38.632Z,96987.16
2023-05-22T09:09:24.107Z,96989.28
2023-05-22T09:12:10.710Z,96996.34
2023-05-22T09:14:56.099Z,96979.66
2023-05-22T09:17:41.527Z,96983.34
2023-05-22T09:20:27.215Z,96982.53
2023-05-22T09:23:17.960Z,96980.19
2023-05-22T09:26:04.188Z,96979.41
2023-05-22T09:28:49.702Z,96975.59
2023-05-22T09:31:45.009Z,96975.59
2023-05-22T09:34:33.068Z,96974.00
2023-05-22T09:37:18.736Z,96981.34
2023-05-22T09:40:07.055Z,96969.09
2023-05-22T09:42:52.809Z,96967.84
2023-05-22T09:45:39.166Z,96965.00
2023-05-22T09:48:25.106Z,96966.72
2023-05-22T09:51:12.224Z,96962.44
2023-05-22T09:54:03.824Z,96966.56
2023-05-22T09:56:52.462Z,96958.75
2023-05-22T09:59:40.284Z,96965.41
2023-05-22T10:02:27.707Z,96963.16
2023-05-22T10:05:15.900Z,96961.88
2023-05-22T10:08:27.607Z,96957.22
2023-05-22T10:11:13.753Z,96955.78
2023-05-22T10:14:00.761Z,96961.94
2023-05-22T10:16:47.126Z,96940.91
2023-05-22T10:19:33.946Z,96949.00
2023-05-22T10:22:22.856Z,96933.94
2023-05-22T10:25:10.555Z,96936.59
2023-05-22T10:27:59.198Z,96937.34
2023-05-22T10:30:56.388Z,96937.16
2023-05-22T10:34:10.870Z,96935.84
2023-05-22T10:37:19.214Z,96923.38
2023-05-22T10:40:19.555Z,96924.00
2023-05-22T10:43:05.186Z,96922.31
2023-05-22T10:46:05.207Z,96916.72
2023-05-22T10:48:53.067Z,96914.59
2023-05-22T10:51:38.773Z,96912.59
2023-05-22T10:54:44.486Z,96911.41
2023-05-22T10:57:35.763Z,96904.44
2023-05-22T11:00:24.722Z,96904.03
2023-05-22T11:03:18.255Z,96900.78
2023-05-22T11:06:04.351Z,96885.41
2023-05-22T11:08:50.380Z,96894.91
2023-05-22T11:11:35.801Z,96883.53
2023-05-22T11:14:21.406Z,96887.25
2023-05-22T11:17:07.154Z,96889.75
2023-05-22T11:20:28.461Z,96884.00
2023-05-22T11:23:15.027Z,96883.44
2023-05-22T11:26:18.237Z,96885.78
2023-05-22T11:29:07.549Z,96883.31
2023-05-22T11:31:53.219Z,96884.66
2023-05-22T11:34:40.681Z,96881.75
2023-05-22T11:37:26.834Z,96866.25
2023-05-22T11:40:15.607Z,96872.13
2023-05-22T11:43:04.297Z,96871.19
2023-05-22T11:45:50.121Z,96865.25
2023-05-22T11:48:36.613Z,96855.72
2023-05-22T11:51:22.256Z,96866.47
2023-05-22T11:54:08.230Z,96860.13
2023-05-22T11:56:53.760Z,96860.75
2023-05-22T11:59:39.494Z,96859.28
2023-05-22T12:02:25.147Z,96857.13
2023-05-22T12:05:12.069Z,96858.81
2023-05-22T12:07:57.464Z,96853.94
2023-05-22T12:10:48.911Z,96845.84
2023-05-22T12:13:34.395Z,96845.94
2023-05-22T12:16:22.044Z,96849.56
2023-05-22T12:19:09.204Z,96847.78
2023-05-22T12:21:55.101Z,96856.38
2023-05-22T12:24:42.060Z,96846.28
2023-05-22T12:27:32.942Z,96838.13
2023-05-22T12:30:19.591Z,96833.50
2023-05-22T12:33:05.316Z,96833.25
2023-05-22T12:35:52.124Z,96843.19
2023-05-22T12:38:39.474Z,96833.97
2023-05-22T12:41:24.564Z,96828.63
2023-05-22T12:44:10.501Z,96829.50
2023-05-22T12:46:56.180Z,96819.88
2023-05-22T12:49:41.632Z,96826.63
2023-05-22T12:52:27.012Z,96830.31
2023-05-22T12:55:12.656Z,96827.22
2023-05-22T12:57:58.423Z,96818.03
2023-05-22T13:00:43.934Z,96826.81
2023-05-22T13:03:29.508Z,96821.59
2023-05-22T13:06:15.062Z,96823.69
2023-05-22T13:09:00.409Z,96814.81
2023-05-22T13:11:46.046Z,96813.41
2023-05-22T13:14:31.185Z,96809.38
2023-05-22T13:17:16.673Z,96802.84
2023-05-22T13:20:02.225Z,96803.34
2023-05-22T13:22:47.991Z,96810.09
2023-05-22T13:25:33.999Z,96809.69
2023-05-22T13:28:19.747Z,96810.31
2023-05-22T13:31:05.509Z,96802.59
2023-05-22T13:33:51.134Z,96799.22
2023-05-22T13:36:36.545Z,96790.44
2023-05-22T13:39:22.087Z,96797.97
2023-05-22T13:42:07.562Z,96787.22
2023-05-22T13:44:53.459Z,96783.91
2023-05-22T13:47:39.353Z,96778.25
2023-05-22T13:50:25.023Z,96777.66
2023-05-22T13:53:11.068Z,96783.69
2023-05-22T13:55:57.133Z,96775.72
2023-05-22T13:58:42.481Z,96772.34
2023-05-22T14:01:28.512Z,96770.19
2023-05-22T14:04:13.980Z,96768.41
2023-05-22T14:06:59.794Z,96766.28
2023-05-22T14:09:45.469Z,96768.34
2023-05-22T14:12:31.392Z,96766.84
2023-05-22T14:15:17.744Z,96765.19
2023-05-22T14:18:03.927Z,96769.19
2023-05-22T14:20:49.733Z,96770.91
2023-05-22T14:23:35.312Z,96772.31
2023-05-22T14:26:21.281Z,96768.38
2023-05-22T14:29:07.094Z,96766.75
2023-05-22T14:32:01.211Z,96759.38
2023-05-22T14:34:47.019Z,96763.75
2023-05-22T14:37:32.235Z,96756.28
2023-05-22T14:40:17.857Z,96761.69
2023-05-22T14:43:04.376Z,96757.66
2023-05-22T14:45:50.516Z,96760.91
2023-05-22T14:48:36.169Z,96757.84
2023-05-22T14:51:22.121Z,96753.22
2023-05-22T14:54:08.041Z,96753.31
2023-05-22T14:56:53.636Z,96758.03
2023-05-22T14:59:38.945Z,96757.22
2023-05-22T15:02:25.124Z,96751.34
2023-05-22T15:05:10.792Z,96749.38
2023-05-22T15:07:58.763Z,96752.50
2023-05-22T15:10:48.041Z,96750.91
2023-05-22T15:13:33.491Z,96751.69
2023-05-22T15:16:18.897Z,96743.00
2023-05-22T15:19:04.357Z,96746.63
2023-05-22T15:21:50.613Z,96743.78
2023-05-22T15:24:36.466Z,96738.63
2023-05-22T15:27:22.165Z,96732.38
2023-05-22T15:30:10.124Z,96734.63
2023-05-22T15:32:56.136Z,96731.81
2023-05-22T15:35:42.734Z,96732.13
2023-05-22T15:38:28.830Z,96733.75
2023-05-22T15:41:14.488Z,96720.53
2023-05-22T15:44:00.165Z,96717.69
2023-05-22T15:46:45.394Z,96714.44
2023-05-22T15:49:31.380Z,96715.91
2023-05-22T15:52:17.203Z,96714.16
2023-05-22T15:55:02.851Z,96710.78
2023-05-22T15:57:48.533Z,96712.84
2023-05-22T16:00:38.769Z,96702.94
2023-05-22T16:03:24.527Z,96706.25
2023-05-22T16:06:10.016Z,96698.28
2023-05-22T16:08:55.664Z,96703.16
2023-05-22T16:11:41.591Z,96700.31
2023-05-22T16:14:26.898Z,96700.59
2023-05-22T16:17:12.327Z,96695.38
2023-05-22T16:19:58.032Z,96689.81
2023-05-22T16:22:48.652Z,96688.88
2023-05-22T16:25:34.784Z,96696.50
2023-05-22T16:28:20.465Z,96695.13
2023-05-22T16:31:06.551Z,96687.56
2023-05-22T16:33:53.023Z,96695.88
2023-05-22T16:36:38.660Z,96690.28
2023-05-22T16:39:23.989Z,96691.56
2023-05-22T16:42:09.640Z,96695.28
2023-05-22T16:44:55.209Z,96698.09
2023-05-22T16:47:40.794Z,96695.66
2023-05-22T16:50:27.081Z,96697.53
2023-05-22T16:53:18.657Z,96697.41
2023-05-22T16:56:05.180Z,96710.50
2023-05-22T16:58:50.844Z,96711.50
2023-05-22T17:01:36.463Z,96710.53
2023-05-22T17:04:22.160Z,96711.16
2023-05-22T17:07:07.962Z,96704.03
2023-05-22T17:09:53.474Z,96709.03
2023-05-22T17:12:38.869Z,96717.81
2023-05-22T17:15:24.228Z,96720.00
2023-05-22T17:18:09.768Z,96715.19
2023-05-22T17:20:56.092Z,96716.59
2023-05-22T17:23:41.582Z,96715.25
2023-05-22T17:26:27.716Z,96720.91
2023-05-22T17:29:13.259Z,96716.88
2023-05-22T17:31:58.632Z,96715.91
2023-05-22T17:34:44.081Z,96716.16
2023-05-22T17:37:29.505Z,96724.13
2023-05-22T17:40:15.018Z,96724.69
2023-05-22T17:43:02.739Z,96727.25
2023-05-22T17:45:50.970Z,96717.97
2023-05-22T17:48:36.636Z,96727.16
2023-05-22T17:51:22.817Z,96723.16
2023-05-22T17:54:09.633Z,96719.69
2023-05-22T17:56:55.389Z,96716.06
2023-05-22T17:59:40.897Z,96716.97
2023-05-22T18:02:28.343Z,96727.13
2023-05-22T18:05:14.239Z,96722.34
2023-05-22T18:08:00.329Z,96724.56
2023-05-22T18:10:45.897Z,96726.22
2023-05-22T18:13:31.370Z,96715.81
2023-05-22T18:16:19.931Z,96719.41
2023-05-22T18:19:05.366Z,96714.97
2023-05-22T18:21:53.498Z,96707.72
2023-05-22T18:24:39.161Z,96712.06
2023-05-22T18:27:24.822Z,96702.53
2023-05-22T18:30:10.674Z,96699.94
2023-05-22T18:32:56.421Z,96698.59
2023-05-22T18:35:41.980Z,96701.03
2023-05-22T18:38:27.727Z,96705.72
2023-05-22T18:41:12.987Z,96715.34
2023-05-22T18:43:58.532Z,96716.44
2023-05-22T18:46:43.669Z,96713.78
2023-05-22T18:49:29.155Z,96724.47
2023-05-22T18:52:14.720Z,96733.88
2023-05-22T18:55:00.361Z,96730.09
2023-05-22T18:57:45.919Z,96742.31
2023-05-22T19:00:31.272Z,96736.47
2023-05-22T19:03:16.714Z,96751.84
2023-05-22T19:06:02.448Z,96753.78
2023-05-22T19:08:48.515Z,96756.47
2023-05-22T19:11:34.409Z,96763.75
2023-05-22T19:14:20.081Z,96769.50
2023-05-22T19:17:05.859Z,96771.59
2023-05-22T19:19:51.149Z,96777.63
2023-05-22T19:22:36.982Z,96771.06
2023-05-22T19:25:22.751Z,96768.53
2023-05-22T19:28:08.282Z,96771.84
2023-05-22T19:30:57.331Z,96777.38
2023-05-22T19:33:43.215Z,96776.19
2023-05-22T19:36:28.682Z,96779.59
2023-05-22T19:39:14.287Z,96779.34
2023-05-22T19:41:59.690Z,96780.81
2023-05-22T19:44:45.143Z,96780.78
2023-05-22T19:47:30.709Z,96776.19
2023-05-22T19:50:16.833Z,96780.75
2023-05-22T19:53:02.401Z,96782.22
2023-05-22T19:55:48.924Z,96784.53
2023-05-22T19:58:34.741Z,96778.88
2023-05-22T20:01:20.241Z,96785.78
2023-05-22T20:04:05.695Z,96789.97
2023-05-22T20:06:51.427Z,96785.59
2023-05-22T20:09:36.816Z,96792.16
2023-05-22T20:12:22.124Z,96793.97
2023-05-22T20:15:08.260Z,96798.94
2023-05-22T20:17:54.695Z,96784.78
2023-05-22T20:20:40.313Z,96790.44
2023-05-22T20:23:25.953Z,96787.47
2023-05-22T20:26:11.327Z,96794.13
2023-05-22T20:28:57.190Z,96790.72
2023-05-22T20:31:42.860Z,96792.19
2023-05-22T20:34:28.713Z,96797.16
2023-05-22T20:37:14.484Z,96792.25
2023-05-22T20:40:07.501Z,96790.25
2023-05-22T20:42:53.455Z,96796.16
2023-05-22T20:45:39.286Z,96799.22
2023-05-22T20:48:24.931Z,96800.63
2023-05-22T20:51:10.425Z,96807.06
2023-05-22T20:53:55.819Z,96807.06
2023-05-22T20:56:41.778Z,96807.06
2023-05-22T20:59:29.089Z,96806.25
2023-05-22T21:02:14.869Z,96813.81
2023-05-22T21:05:00.264Z,96807.19
2023-05-22T21:07:45.742Z,96808.53
2023-05-22T21:10:31.141Z,96804.09
2023-05-22T21:13:16.792Z,96804.09
2023-05-22T21:16:02.575Z,96800.25
2023-05-22T21:18:48.186Z,96802.06
2023-05-22T21:21:35.753Z,96798.72
2023-05-22T21:24:22.042Z,96801.97
2023-05-22T21:27:07.235Z,96803.63
2023-05-22T21:29:52.955Z,96801.81
2023-05-22T21:32:38.565Z,96806.38
2023-05-22T21:35:24.545Z,96805.28
2023-05-22T21:38:10.043Z,96806.59
2023-05-22T21:40:55.588Z,96801.25
2023-05-22T21:43:42.184Z,96802.63
2023-05-22T21:46:28.118Z,96806.13
2023-05-22T21:49:14.000Z,96806.75
2023-05-22T21:51:59.841Z,96802.53
2023-05-22T21:54:45.640Z,96805.75
2023-05-22T21:57:31.321Z,96804.75
2023-05-22T22:00:17.287Z,96805.56
2023-05-22T22:03:03.057Z,96803.97
2023-05-22T22:05:48.981Z,96796.84
2023-05-22T22:08:34.385Z,96797.44
2023-05-22T22:11:20.171Z,96802.56
2023-05-22T22:14:07.394Z,96797.59
2023-05-22T22:16:54.630Z,96784.88
2023-05-22T22:19:41.889Z,96781.47
2023-05-22T22:22:27.546Z,96784.69
2023-05-22T22:25:13.004Z,96781.78
2023-05-22T22:27:58.401Z,96786.88
2023-05-22T22:30:43.853Z,96782.75
2023-05-22T22:33:30.425Z,96775.34
2023-05-22T22:36:17.016Z,96775.09
2023-05-22T22:39:02.569Z,96771.41
2023-05-22T22:41:48.112Z,96775.19
2023-05-22T22:44:34.036Z,96779.03
2023-05-22T22:47:19.897Z,96781.53
2023-05-22T22:50:05.708Z,96777.53
2023-05-22T22:52:51.307Z,96783.72
2023-05-22T22:55:37.800Z,96781.84
2023-05-22T22:58:23.735Z,96780.50
2023-05-22T23:01:08.880Z,96780.81
2023-05-22T23:03:54.325Z,96777.38
2023-05-22T23:06:41.734Z,96774.47
2023-05-22T23:09:27.415Z,96771.56
2023-05-22T23:12:12.830Z,96765.47
2023-05-22T23:14:58.160Z,96767.34
2023-05-22T23:17:43.738Z,96771.09
2023-05-22T23:20:29.725Z,96767.63
2023-05-22T23:23:15.454Z,96767.09
2023-05-22T23:26:01.127Z,96761.00
2023-05-22T23:28:46.926Z,96758.56
2023-05-22T23:31:32.273Z,96756.44
2023-05-22T23:34:17.722Z,96759.94
2023-05-22T23:37:03.249Z,96759.72
2023-05-22T23:39:48.766Z,96755.69
2023-05-22T23:42:35.837Z,96761.88
2023-05-22T23:45:21.481Z,96759.19
2023-05-22T23:48:07.418Z,96758.69
2023-05-22T23:50:52.664Z,96760.81
2023-05-22T23:53:38.676Z,96762.41
2023-05-22T23:56:24.046Z,96758.94
2023-05-22T23:59:09.863Z,96746.97
